Time;durP1;ratioP1;P1;durP2;ratioP2;P2;SDS_P1;SDS_P2;PMS_P1;PMS_P2;Temp;Humidity;BMP_temperature;BMP_pressure;BME280_temperature;BME280_humidity;BME280_pressure;Samples;Min_cycle;Max_cycle;Signal;HPM_P1;HPM_P2
2023/03/28 00:01:44;;;;;;;7.18;2.45;;;;;;;;;;493911;29;1272;-78
2023/03/28 00:03:21;;;;;;;8.70;2.70;;;;;;;;;;489699;29;1728;-78
2023/03/28 00:03:28;;;;;;;6.60;2.42;;;;;;;;;;490752;29;1786;-78
2023/03/28 00:03:38;;;;;;;7.57;2.72;;;;;;;;;;486724;29;1464;-78
2023/03/28 00:03:56;;;;;;;8.00;2.65;;;;;;;;;;485206;29;1363;-80
2023/03/28 00:05:39;;;;;;;6.63;2.58;;;;;;;;;;487130;29;1189;-78
2023/03/28 00:05:55;;;;;;;8.02;2.60;;;;;;;;;;480069;29;1271;-77
2023/03/28 00:06:15;;;;;;;8.13;2.85;;;;;;;;;;486335;29;1285;-78
2023/03/28 00:06:30;;;;;;;6.80;2.60;;;;;;;;;;484065;29;1168;-77
2023/03/28 00:06:46;;;;;;;5.03;2.30;;;;;;;;;;486152;29;1537;-78
2023/03/28 00:07:02;;;;;;;5.83;2.47;;;;;;;;;;485437;29;968;-78
2023/03/28 00:07:19;;;;;;;7.22;2.72;;;;;;;;;;486565;29;1157;-79
2023/03/28 00:07:38;;;;;;;7.63;2.70;;;;;;;;;;482815;29;989;-78
2023/03/28 00:07:59;;;;;;;8.63;2.88;;;;;;;;;;480428;29;1307;-77
2023/03/28 00:08:15;;;;;;;8.82;2.80;;;;;;;;;;485198;29;1107;-79
2023/03/28 00:08:30;;;;;;;10.00;3.00;;;;;;;;;;484679;29;1565;-78
2023/03/28 00:08:46;;;;;;;10.67;3.10;;;;;;;;;;480787;29;1291;-80
2023/03/28 00:09:02;;;;;;;8.20;2.80;;;;;;;;;;480188;29;1313;-79
2023/03/28 00:09:21;;;;;;;8.07;2.70;;;;;;;;;;487003;29;1211;-79
2023/03/28 00:09:37;;;;;;;7.88;2.70;;;;;;;;;;486275;29;1354;-78
2023/03/28 00:09:52;;;;;;;7.40;2.70;;;;;;;;;;482869;29;1336;-78
2023/03/28 00:10:08;;;;;;;8.67;2.80;;;;;;;;;;485470;29;1386;-78
2023/03/28 00:10:23;;;;;;;9.30;2.90;;;;;;;;;;486668;29;948;-78
2023/03/28 00:10:38;;;;;;;7.87;2.70;;;;;;;;;;483886;29;1263;-78
2023/03/28 00:11:04;;;;;;;7.73;2.80;;;;;;;;;;486755;29;1254;-78
2023/03/28 00:11:20;;;;;;;6.47;2.58;;;;;;;;;;485302;29;1348;-77
2023/03/28 00:11:36;;;;;;;6.50;2.70;;;;;;;;;;483999;29;1152;-79
2023/03/28 00:11:51;;;;;;;7.40;2.80;;;;;;;;;;487029;29;1197;-78
2023/03/28 00:12:06;;;;;;;8.10;2.70;;;;;;;;;;485269;29;1371;-78
2023/03/28 00:12:22;;;;;;;6.73;2.60;;;;;;;;;;484979;29;1247;-77
2023/03/28 00:12:38;;;;;;;6.78;2.75;;;;;;;;;;485786;29;1009;-78
2023/03/28 00:12:53;;;;;;;6.82;2.80;;;;;;;;;;487156;29;1096;-78
2023/03/28 00:13:09;;;;;;;5.60;2.43;;;;;;;;;;485640;29;1132;-78
2023/03/28 00:13:24;;;;;;;5.22;2.50;;;;;;;;;;486585;29;941;-78
2023/03/28 00:13:39;;;;;;;4.93;2.60;;;;;;;;;;481426;29;1042;-77
2023/03/28 00:14:17;;;;;;;5.23;2.40;;;;;;;;;;484016;29;1925;-79
2023/03/28 00:14:36;;;;;;;7.18;3.00;;;;;;;;;;483646;29;1457;-80
2023/03/28 00:14:52;;;;;;;7.40;3.00;;;;;;;;;;482928;29;1328;-78
2023/03/28 00:15:14;;;;;;;7.32;2.90;;;;;;;;;;481328;29;1216;-78
2023/03/28 00:15:29;;;;;;;6.82;2.95;;;;;;;;;;481780;29;1276;-79
2023/03/28 00:16:10;;;;;;;6.77;3.07;;;;;;;;;;486161;29;1379;-78
2023/03/28 00:16:39;;;;;;;7.00;2.65;;;;;;;;;;490224;29;1382;-79
2023/03/28 00:18:56;;;;;;;5.93;2.60;;;;;;;;;;484866;29;1172;-78
2023/03/28 00:19:19;;;;;;;6.55;2.60;;;;;;;;;;484888;29;1578;-79
2023/03/28 00:20:16;;;;;;;;;;;;;;;;;;;;;
2023/03/28 00:20:38;;;;;;;7.35;2.85;;;;;;;;;;486348;29;1470;-78
2023/03/28 00:20:57;;;;;;;7.85;3.08;;;;;;;;;;483085;29;1079;-78
2023/03/28 00:21:48;;;;;;;6.82;2.83;;;;;;;;;;489743;29;1086;-77
2023/03/28 00:22:07;;;;;;;6.07;2.83;;;;;;;;;;491689;29;1198;-80
2023/03/28 00:22:29;;;;;;;6.35;2.70;;;;;;;;;;488973;29;1502;-78
2023/03/28 00:22:56;;;;;;;6.75;2.72;;;;;;;;;;488218;29;1434;-78
2023/03/28 00:23:12;;;;;;;5.72;2.53;;;;;;;;;;489791;29;1462;-78
2023/03/28 00:23:29;;;;;;;6.03;2.63;;;;;;;;;;489623;29;1335;-78
2023/03/28 00:23:45;;;;;;;6.40;2.72;;;;;;;;;;490532;29;1338;-77
2023/03/28 00:24:04;;;;;;;7.60;3.10;;;;;;;;;;490888;29;1102;-78
2023/03/28 00:24:58;;;;;;;4.90;2.40;;;;;;;;;;484564;29;1257;-78
2023/03/28 00:25:02;;;;;;;7.10;3.20;;;;;;;;;;490751;29;1382;-79
2023/03/28 00:25:25;;;;;;;4.50;2.40;;;;;;;;;;491782;29;1779;-78
2023/03/28 00:25:42;;;;;;;4.85;2.65;;;;;;;;;;493424;29;1424;-80
2023/03/28 00:26:13;;;;;;;5.47;2.70;;;;;;;;;;492393;29;1872;-78
2023/03/28 00:26:31;;;;;;;6.65;2.83;;;;;;;;;;494376;29;1120;-77
2023/03/28 00:26:59;;;;;;;5.80;2.97;;;;;;;;;;493041;29;1255;-78
2023/03/28 00:27:15;;;;;;;8.57;3.00;;;;;;;;;;492725;29;1045;-78
2023/03/28 00:27:32;;;;;;;9.55;3.10;;;;;;;;;;491829;29;1285;-78
2023/03/28 00:27:47;;;;;;;6.25;2.75;;;;;;;;;;488805;29;1410;-78
2023/03/28 00:28:02;;;;;;;5.43;2.70;;;;;;;;;;488761;29;1203;-78
2023/03/28 00:28:18;;;;;;;5.78;2.80;;;;;;;;;;489483;29;971;-78
2023/03/28 00:28:34;;;;;;;6.30;2.80;;;;;;;;;;490282;29;1172;-77
2023/03/28 00:28:50;;;;;;;6.75;2.85;;;;;;;;;;490743;29;954;-78
2023/03/28 00:29:08;;;;;;;6.38;2.90;;;;;;;;;;490123;29;1346;-78
2023/03/28 00:29:24;;;;;;;6.50;3.10;;;;;;;;;;491518;29;1175;-77
2023/03/28 00:29:40;;;;;;;6.68;2.97;;;;;;;;;;490168;29;1580;-79
2023/03/28 00:29:55;;;;;;;6.53;2.80;;;;;;;;;;489836;29;953;-78
2023/03/28 00:30:11;;;;;;;7.28;2.90;;;;;;;;;;489576;29;1233;-78
2023/03/28 00:30:26;;;;;;;9.77;3.10;;;;;;;;;;487356;29;1322;-78
2023/03/28 00:30:42;;;;;;;8.85;2.90;;;;;;;;;;487913;29;1317;-78
2023/03/28 00:31:07;;;;;;;6.10;2.77;;;;;;;;;;487047;29;1487;-78
2023/03/28 00:31:24;;;;;;;5.88;2.80;;;;;;;;;;488470;29;1472;-78
2023/03/28 00:31:49;;;;;;;5.93;2.63;;;;;;;;;;486782;29;1334;-78
2023/03/28 00:32:04;;;;;;;6.03;2.90;;;;;;;;;;487478;29;997;-78
2023/03/28 00:32:20;;;;;;;7.15;3.00;;;;;;;;;;486253;29;1299;-78
2023/03/28 00:32:36;;;;;;;6.80;2.80;;;;;;;;;;484178;29;1247;-78
2023/03/28 00:32:51;;;;;;;5.32;2.60;;;;;;;;;;485479;29;1409;-78
2023/03/28 00:33:07;;;;;;;6.07;2.60;;;;;;;;;;485728;29;1157;-78
2023/03/28 00:33:27;;;;;;;7.22;2.60;;;;;;;;;;487401;29;1243;-78
2023/03/28 00:33:46;;;;;;;7.30;2.55;;;;;;;;;;487203;29;1363;-78
2023/03/28 00:34:01;;;;;;;6.18;2.60;;;;;;;;;;486352;29;2113;-78
2023/03/28 00:34:17;;;;;;;6.30;2.60;;;;;;;;;;488780;29;1022;-78
2023/03/28 00:34:32;;;;;;;6.87;2.57;;;;;;;;;;487398;29;1430;-77
2023/03/28 00:34:48;;;;;;;6.40;2.78;;;;;;;;;;487049;29;1322;-78
2023/03/28 00:35:03;;;;;;;5.20;2.80;;;;;;;;;;484440;29;1422;-78
2023/03/28 00:35:19;;;;;;;5.57;2.63;;;;;;;;;;485757;29;1190;-78
2023/03/28 00:35:35;;;;;;;7.13;2.80;;;;;;;;;;480330;29;1439;-78
2023/03/28 00:35:50;;;;;;;7.13;2.97;;;;;;;;;;488781;29;1356;-78
2023/03/28 00:36:09;;;;;;;5.68;2.78;;;;;;;;;;487222;29;1263;-77
2023/03/28 00:36:28;;;;;;;6.03;2.80;;;;;;;;;;490156;29;1560;-78
2023/03/28 00:36:43;;;;;;;7.28;2.97;;;;;;;;;;489091;29;1498;-78
2023/03/28 00:37:01;;;;;;;7.63;2.97;;;;;;;;;;489234;29;1101;-78
2023/03/28 00:37:16;;;;;;;7.03;2.67;;;;;;;;;;487170;29;1390;-78
2023/03/28 00:37:31;;;;;;;5.87;2.40;;;;;;;;;;486952;29;1382;-78
2023/03/28 00:37:50;;;;;;;7.00;2.50;;;;;;;;;;488087;29;1314;-78
2023/03/28 00:38:05;;;;;;;7.93;2.80;;;;;;;;;;488416;29;1018;-78
2023/03/28 00:38:20;;;;;;;7.33;2.70;;;;;;;;;;487801;29;1385;-78
2023/03/28 00:38:37;;;;;;;6.30;2.50;;;;;;;;;;488454;29;1307;-78
2023/03/28 00:38:52;;;;;;;6.25;2.60;;;;;;;;;;489109;29;964;-78
2023/03/28 00:39:09;;;;;;;6.90;2.65;;;;;;;;;;493390;29;1235;-78
2023/03/28 00:39:26;;;;;;;7.53;2.60;;;;;;;;;;493890;29;1413;-77
2023/03/28 00:39:42;;;;;;;8.38;2.90;;;;;;;;;;493778;29;1500;-77
2023/03/28 00:39:58;;;;;;;7.72;3.05;;;;;;;;;;494768;29;1261;-78
2023/03/28 00:40:13;;;;;;;7.88;3.00;;;;;;;;;;491774;29;1275;-78
2023/03/28 00:41:10;;;;;;;7.13;2.70;;;;;;;;;;493275;29;1421;-78
2023/03/28 00:41:25;;;;;;;5.90;2.80;;;;;;;;;;496817;29;1182;-78
2023/03/28 00:41:42;;;;;;;9.25;3.03;;;;;;;;;;494028;29;1408;-77
2023/03/28 00:42:00;;;;;;;8.55;3.03;;;;;;;;;;496913;28;1302;-78
2023/03/28 00:42:19;;;;;;;6.47;2.80;;;;;;;;;;506755;28;1442;-78
2023/03/28 00:42:55;;;;;;;6.68;2.78;;;;;;;;;;509169;28;1293;-78
2023/03/28 00:43:12;;;;;;;4.38;2.22;;;;;;;;;;505152;28;1815;-78
2023/03/28 00:43:34;;;;;;;4.75;2.20;;;;;;;;;;504703;28;1173;-78
2023/03/28 00:43:51;;;;;;;4.90;2.53;;;;;;;;;;503423;28;1196;-78
2023/03/28 00:44:25;;;;;;;5.05;2.60;;;;;;;;;;505382;28;1372;-78
2023/03/28 00:44:57;;;;;;;;;;;;;;;;;;;;;
2023/03/28 00:45:15;;;;;;;8.57;2.90;;;;;;;;;;507656;28;1228;-77
2023/03/28 00:45:51;;;;;;;7.28;2.80;;;;;;;;;;507723;28;1648;-78
2023/03/28 00:46:09;;;;;;;6.95;2.53;;;;;;;;;;512172;28;1388;-77
2023/03/28 00:46:34;;;;;;;8.52;2.78;;;;;;;;;;512599;28;1057;-77
2023/03/28 00:47:43;;;;;;;4.00;2.42;;;;;;;;;;510644;28;950;-78
2023/03/28 00:48:02;;;;;;;5.53;2.42;;;;;;;;;;504989;28;967;-79
2023/03/28 00:48:17;;;;;;;6.93;2.90;;;;;;;;;;509046;28;1388;-78
2023/03/28 00:48:33;;;;;;;6.40;2.80;;;;;;;;;;508855;28;1158;-78
2023/03/28 00:48:53;;;;;;;6.43;2.65;;;;;;;;;;509221;28;1308;-77
2023/03/28 00:49:11;;;;;;;5.85;2.78;;;;;;;;;;509578;28;1168;-77
2023/03/28 00:50:07;;;;;;;6.28;2.72;;;;;;;;;;507910;28;1045;-78
2023/03/28 00:50:41;;;;;;;5.70;2.70;;;;;;;;;;506449;28;1144;-78
2023/03/28 00:51:02;;;;;;;6.90;2.90;;;;;;;;;;510642;28;1300;-78
2023/03/28 00:51:37;;;;;;;5.28;2.55;;;;;;;;;;508018;28;1160;-78
2023/03/28 00:51:56;;;;;;;5.38;2.70;;;;;;;;;;504399;28;1278;-78
2023/03/28 00:52:22;;;;;;;6.72;2.90;;;;;;;;;;504166;28;1402;-77
2023/03/28 00:52:43;;;;;;;5.93;2.83;;;;;;;;;;507476;28;1140;-77
2023/03/28 00:53:07;;;;;;;6.28;2.70;;;;;;;;;;510675;28;1184;-77
2023/03/28 00:53:25;;;;;;;7.22;2.80;;;;;;;;;;508279;28;1482;-78
2023/03/28 00:53:41;;;;;;;7.80;3.00;;;;;;;;;;507800;28;1235;-77
2023/03/28 00:53:58;;;;;;;5.68;2.78;;;;;;;;;;507810;28;2416;-77
2023/03/28 00:54:16;;;;;;;6.25;2.80;;;;;;;;;;509780;28;1078;-77
2023/03/28 00:54:33;;;;;;;7.53;2.85;;;;;;;;;;508960;28;1521;-77
2023/03/28 00:54:49;;;;;;;7.80;2.80;;;;;;;;;;506962;28;1394;-77
2023/03/28 00:55:06;;;;;;;6.97;2.90;;;;;;;;;;507863;28;1265;-77
2023/03/28 00:55:29;;;;;;;5.80;2.67;;;;;;;;;;508786;28;1418;-77
2023/03/28 00:55:47;;;;;;;4.90;2.30;;;;;;;;;;506112;28;1275;-78
2023/03/28 00:56:06;;;;;;;4.45;2.22;;;;;;;;;;507107;28;1318;-78
2023/03/28 00:56:22;;;;;;;5.68;2.55;;;;;;;;;;507281;28;1452;-77
2023/03/28 00:56:39;;;;;;;5.78;2.70;;;;;;;;;;503889;28;1422;-78
2023/03/28 00:56:55;;;;;;;5.68;2.80;;;;;;;;;;502204;28;1342;-77
2023/03/28 00:57:12;;;;;;;5.22;2.72;;;;;;;;;;504886;28;1201;-77
2023/03/28 00:57:28;;;;;;;5.75;2.67;;;;;;;;;;506506;28;1453;-78
2023/03/28 00:58:03;;;;;;;5.97;2.60;;;;;;;;;;507864;28;986;-78
2023/03/28 00:58:23;;;;;;;6.25;2.65;;;;;;;;;;506529;28;1362;-78
2023/03/28 00:58:41;;;;;;;7.05;2.85;;;;;;;;;;506546;28;1296;-77
2023/03/28 00:58:57;;;;;;;6.75;2.72;;;;;;;;;;505101;28;1288;-78
2023/03/28 00:59:14;;;;;;;6.83;2.97;;;;;;;;;;505982;28;1187;-78
2023/03/28 00:59:31;;;;;;;7.07;3.00;;;;;;;;;;508925;28;1521;-78
2023/03/28 00:59:47;;;;;;;8.77;3.00;;;;;;;;;;507092;28;1162;-77
2023/03/28 01:00:05;;;;;;;9.53;3.00;;;;;;;;;;506048;28;1081;-78
2023/03/28 01:00:20;;;;;;;7.35;2.90;;;;;;;;;;503915;28;1350;-77
2023/03/28 01:00:36;;;;;;;6.50;2.90;;;;;;;;;;510121;28;1309;-77
2023/03/28 01:00:53;;;;;;;5.55;2.63;;;;;;;;;;506938;28;1252;-77
2023/03/28 01:01:10;;;;;;;5.28;2.40;;;;;;;;;;508551;28;1484;-77
2023/03/28 01:01:26;;;;;;;6.80;2.60;;;;;;;;;;508474;28;1494;-77
2023/03/28 01:01:42;;;;;;;8.55;2.90;;;;;;;;;;512288;28;1407;-77
2023/03/28 01:01:58;;;;;;;8.68;3.05;;;;;;;;;;506700;28;1586;-78
2023/03/28 01:02:13;;;;;;;8.15;2.90;;;;;;;;;;504207;28;1196;-77
2023/03/28 01:02:28;;;;;;;9.20;2.93;;;;;;;;;;505026;28;1318;-77
2023/03/28 01:02:49;;;;;;;9.37;2.90;;;;;;;;;;504056;28;1303;-77
2023/03/28 01:03:05;;;;;;;8.15;2.53;;;;;;;;;;504584;28;1091;-77
2023/03/28 01:03:26;;;;;;;9.30;2.60;;;;;;;;;;502152;28;1353;-78
2023/03/28 01:03:44;;;;;;;8.27;2.70;;;;;;;;;;505654;28;1429;-77
2023/03/28 01:04:03;;;;;;;8.40;2.78;;;;;;;;;;507288;28;907;-78
2023/03/28 01:04:19;;;;;;;8.07;2.78;;;;;;;;;;508188;28;1427;-79
2023/03/28 01:04:41;;;;;;;7.20;2.60;;;;;;;;;;506611;28;1481;-78
2023/03/28 01:04:59;;;;;;;5.60;2.50;;;;;;;;;;505466;28;1317;-78
2023/03/28 01:05:14;;;;;;;6.05;2.53;;;;;;;;;;505490;28;1311;-78
2023/03/28 01:05:31;;;;;;;6.57;2.67;;;;;;;;;;506558;28;1352;-77
2023/03/28 01:05:46;;;;;;;5.70;2.55;;;;;;;;;;501561;28;1407;-78
2023/03/28 01:06:03;;;;;;;5.40;2.60;;;;;;;;;;507182;28;1261;-78
2023/03/28 01:06:20;;;;;;;5.20;2.65;;;;;;;;;;510135;28;1332;-78
2023/03/28 01:06:39;;;;;;;4.72;2.40;;;;;;;;;;507896;28;1531;-77
2023/03/28 01:06:55;;;;;;;5.05;2.35;;;;;;;;;;506759;28;1443;-77
2023/03/28 01:07:52;;;;;;;5.72;2.50;;;;;;;;;;506037;28;1335;-77
2023/03/28 01:08:18;;;;;;;6.10;2.65;;;;;;;;;;509163;28;1271;-79
2023/03/28 01:08:36;;;;;;;5.93;2.55;;;;;;;;;;508313;28;1262;-77
2023/03/28 01:08:52;;;;;;;5.60;2.40;;;;;;;;;;510003;28;1663;-78
2023/03/28 01:09:08;;;;;;;4.93;2.40;;;;;;;;;;509655;28;1351;-78
2023/03/28 01:09:23;;;;;;;5.53;2.40;;;;;;;;;;508424;28;1291;-77
2023/03/28 01:09:39;;;;;;;5.60;2.25;;;;;;;;;;507184;28;1398;-78
2023/03/28 01:09:54;;;;;;;4.83;2.20;;;;;;;;;;506611;28;1280;-78
2023/03/28 01:10:10;;;;;;;4.90;2.30;;;;;;;;;;508143;28;1267;-77
2023/03/28 01:10:25;;;;;;;5.22;2.17;;;;;;;;;;507718;28;1283;-78
2023/03/28 01:10:42;;;;;;;5.07;2.00;;;;;;;;;;508717;28;1252;-78
2023/03/28 01:10:57;;;;;;;5.50;2.15;;;;;;;;;;507370;28;1425;-78
2023/03/28 01:11:13;;;;;;;6.80;2.57;;;;;;;;;;507902;28;1012;-78
2023/03/28 01:11:29;;;;;;;6.82;2.70;;;;;;;;;;508081;28;1236;-78
2023/03/28 01:11:45;;;;;;;5.45;2.40;;;;;;;;;;509120;28;1177;-77
2023/03/28 01:12:01;;;;;;;5.95;2.30;;;;;;;;;;505882;28;1270;-78
2023/03/28 01:12:17;;;;;;;5.38;2.28;;;;;;;;;;503359;28;1205;-77
2023/03/28 01:12:33;;;;;;;5.60;2.35;;;;;;;;;;505892;28;1185;-78
2023/03/28 01:12:49;;;;;;;7.57;2.70;;;;;;;;;;506734;28;1398;-77
2023/03/28 01:13:04;;;;;;;6.38;2.70;;;;;;;;;;508053;28;1383;-78
2023/03/28 01:13:22;;;;;;;6.30;2.50;;;;;;;;;;507673;28;1387;-77
2023/03/28 01:13:40;;;;;;;8.15;2.70;;;;;;;;;;506760;28;1294;-78
2023/03/28 01:13:57;;;;;;;7.68;2.80;;;;;;;;;;509186;28;1950;-77
2023/03/28 01:14:17;;;;;;;6.40;2.70;;;;;;;;;;509287;28;1354;-78
2023/03/28 01:14:35;;;;;;;5.80;2.40;;;;;;;;;;508242;28;1334;-77
2023/03/28 01:15:11;;;;;;;5.97;2.30;;;;;;;;;;504810;28;1341;-78
2023/03/28 01:15:28;;;;;;;6.85;2.63;;;;;;;;;;506553;28;1256;-78
2023/03/28 01:15:43;;;;;;;7.28;2.63;;;;;;;;;;506052;28;1256;-77
2023/03/28 01:16:01;;;;;;;6.37;2.57;;;;;;;;;;504547;28;1154;-77
2023/03/28 01:16:21;;;;;;;6.00;2.58;;;;;;;;;;510123;28;1301;-79
2023/03/28 01:16:40;;;;;;;6.80;2.70;;;;;;;;;;507411;28;1325;-78
2023/03/28 01:16:56;;;;;;;8.40;3.00;;;;;;;;;;509803;28;927;-78
2023/03/28 01:17:12;;;;;;;9.23;2.88;;;;;;;;;;509213;28;1105;-78
2023/03/28 01:18:10;;;;;;;7.05;2.60;;;;;;;;;;505737;28;1318;-78
2023/03/28 01:18:24;;;;;;;7.57;2.40;;;;;;;;;;510098;28;1350;-78
2023/03/28 01:18:40;;;;;;;7.10;2.60;;;;;;;;;;509281;28;1265;-79
2023/03/28 01:19:00;;;;;;;6.82;2.70;;;;;;;;;;510499;28;1267;-78
2023/03/28 01:19:41;;;;;;;6.38;2.50;;;;;;;;;;512178;28;1070;-78
2023/03/28 01:20:03;;;;;;;7.53;2.45;;;;;;;;;;510167;28;1701;-78
2023/03/28 01:20:31;;;;;;;8.45;2.80;;;;;;;;;;509717;28;1062;-77
2023/03/28 01:20:46;;;;;;;8.13;2.60;;;;;;;;;;509178;28;1303;-78
2023/03/28 01:21:05;;;;;;;7.23;2.60;;;;;;;;;;508439;28;1263;-78
2023/03/28 01:21:38;;;;;;;6.30;2.65;;;;;;;;;;507887;28;1018;-78
2023/03/28 01:22:09;;;;;;;7.30;2.60;;;;;;;;;;508647;28;1561;-78
2023/03/28 01:22:45;;;;;;;9.00;2.80;;;;;;;;;;507763;28;1276;-78
2023/03/28 01:23:13;;;;;;;8.02;2.70;;;;;;;;;;507585;28;1110;-78
2023/03/28 01:23:39;;;;;;;8.00;2.80;;;;;;;;;;508566;28;1154;-78
2023/03/28 01:24:03;;;;;;;6.05;2.60;;;;;;;;;;508469;28;1018;-78
2023/03/28 01:24:37;;;;;;;8.45;2.85;;;;;;;;;;509627;28;1401;-78
2023/03/28 01:24:55;;;;;;;7.05;2.40;;;;;;;;;;507968;28;1116;-78
2023/03/28 01:25:22;;;;;;;6.18;2.50;;;;;;;;;;510399;28;1452;-78
2023/03/28 01:25:40;;;;;;;8.48;2.75;;;;;;;;;;507828;28;1241;-78
2023/03/28 01:26:22;;;;;;;6.70;2.50;;;;;;;;;;508805;28;1290;-78
2023/03/28 01:26:56;;;;;;;7.63;2.60;;;;;;;;;;501126;28;1455;-78
2023/03/28 01:27:19;;;;;;;6.90;2.60;;;;;;;;;;502725;28;1449;-78
2023/03/28 01:28:00;;;;;;;8.73;2.85;;;;;;;;;;506827;28;1363;-78
2023/03/28 01:28:22;;;;;;;8.65;2.97;;;;;;;;;;505670;28;1085;-78
2023/03/28 01:28:57;;;;;;;8.75;3.00;;;;;;;;;;507327;28;1395;-78
2023/03/28 01:29:26;;;;;;;7.60;2.70;;;;;;;;;;506678;28;1500;-78
2023/03/28 01:29:53;;;;;;;7.13;2.70;;;;;;;;;;508460;28;1082;-78
2023/03/28 01:30:27;;;;;;;8.48;2.78;;;;;;;;;;506233;28;1034;-77
2023/03/28 01:30:42;;;;;;;7.68;2.72;;;;;;;;;;507127;28;1291;-78
2023/03/28 01:31:29;;;;;;;7.20;2.70;;;;;;;;;;507702;28;1312;-77
2023/03/28 01:31:45;;;;;;;6.47;2.60;;;;;;;;;;506236;28;1058;-78
2023/03/28 01:32:00;;;;;;;8.60;2.80;;;;;;;;;;507549;28;1268;-78
2023/03/28 01:32:30;;;;;;;7.43;2.50;;;;;;;;;;505697;28;1311;-78
2023/03/28 01:32:51;;;;;;;7.28;2.53;;;;;;;;;;504099;28;1359;-78
2023/03/28 01:33:07;;;;;;;8.45;2.80;;;;;;;;;;508455;28;1358;-77
2023/03/28 01:33:42;;;;;;;8.60;2.90;;;;;;;;;;508779;28;1129;-78
2023/03/28 01:34:00;;;;;;;7.70;2.80;;;;;;;;;;509919;28;1950;-78
2023/03/28 01:34:16;;;;;;;6.68;2.63;;;;;;;;;;509394;28;1386;-77
2023/03/28 01:34:50;;;;;;;6.37;2.57;;;;;;;;;;509211;28;1180;-78
2023/03/28 01:35:23;;;;;;;7.35;2.63;;;;;;;;;;503054;28;1413;-78
2023/03/28 01:35:57;;;;;;;6.72;2.72;;;;;;;;;;506622;28;1267;-77
2023/03/28 01:36:18;;;;;;;9.43;3.00;;;;;;;;;;505450;28;1529;-77
2023/03/28 01:36:40;;;;;;;7.35;2.60;;;;;;;;;;509785;28;1097;-77
2023/03/28 01:37:14;;;;;;;6.72;2.50;;;;;;;;;;509912;28;1521;-77
2023/03/28 01:37:37;;;;;;;7.53;2.78;;;;;;;;;;510510;28;1255;-77
2023/03/28 01:37:59;;;;;;;7.50;2.92;;;;;;;;;;510043;28;1335;-77
2023/03/28 01:38:23;;;;;;;8.82;2.95;;;;;;;;;;510299;28;1512;-77
2023/03/28 01:38:42;;;;;;;6.28;2.67;;;;;;;;;;506959;28;1397;-78
2023/03/28 01:39:11;;;;;;;6.07;2.55;;;;;;;;;;506019;28;1493;-77
2023/03/28 01:39:27;;;;;;;6.97;2.42;;;;;;;;;;507035;28;1439;-77
2023/03/28 01:39:43;;;;;;;6.03;2.60;;;;;;;;;;506826;28;1258;-78
2023/03/28 01:40:45;;;;;;;8.52;3.00;;;;;;;;;;504077;28;1299;-78
2023/03/28 01:41:11;;;;;;;6.75;2.63;;;;;;;;;;505432;28;1435;-77
2023/03/28 01:41:29;;;;;;;6.55;2.63;;;;;;;;;;502960;28;1531;-78
2023/03/28 01:41:55;;;;;;;5.45;2.58;;;;;;;;;;509390;28;1359;-77
2023/03/28 01:42:13;;;;;;;6.43;2.70;;;;;;;;;;512768;28;1343;-78
2023/03/28 01:42:28;;;;;;;6.90;2.50;;;;;;;;;;507124;28;1370;-78
2023/03/28 01:42:46;;;;;;;8.37;2.80;;;;;;;;;;508052;28;1505;-77
2023/03/28 01:43:02;;;;;;;7.70;2.80;;;;;;;;;;506533;28;1248;-77
2023/03/28 01:43:26;;;;;;;6.53;2.70;;;;;;;;;;508629;28;1280;-77
2023/03/28 01:44:08;;;;;;;7.70;2.83;;;;;;;;;;507373;28;1308;-78
2023/03/28 01:44:35;;;;;;;7.75;2.65;;;;;;;;;;505793;28;1470;-78
2023/03/28 01:44:58;;;;;;;7.18;3.00;;;;;;;;;;509195;28;1666;-77
2023/03/28 01:45:32;;;;;;;6.75;2.60;;;;;;;;;;508304;28;1147;-79
2023/03/28 01:45:47;;;;;;;7.95;2.70;;;;;;;;;;505850;28;1021;-78
2023/03/28 01:46:12;;;;;;;9.03;2.70;;;;;;;;;;502917;28;1416;-78
2023/03/28 01:46:43;;;;;;;9.00;2.72;;;;;;;;;;508107;28;880;-77
2023/03/28 01:47:01;;;;;;;7.22;2.80;;;;;;;;;;507040;28;1114;-77
2023/03/28 01:47:32;;;;;;;8.68;2.80;;;;;;;;;;504680;28;1082;-77
2023/03/28 01:48:07;;;;;;;8.80;2.85;;;;;;;;;;505058;28;1190;-79
2023/03/28 01:48:22;;;;;;;7.22;2.80;;;;;;;;;;506393;28;1275;-77
2023/03/28 01:48:56;;;;;;;7.60;2.70;;;;;;;;;;505932;28;1275;-77
2023/03/28 01:49:14;;;;;;;8.30;2.92;;;;;;;;;;507667;28;1247;-77
2023/03/28 01:49:38;;;;;;;6.10;2.63;;;;;;;;;;506923;28;1338;-78
2023/03/28 01:49:56;;;;;;;6.53;2.60;;;;;;;;;;508588;28;1106;-77
2023/03/28 01:50:17;;;;;;;8.18;2.85;;;;;;;;;;506361;28;1257;-78
2023/03/28 01:50:40;;;;;;;7.68;2.75;;;;;;;;;;504436;28;1682;-77
2023/03/28 01:51:02;;;;;;;7.28;2.70;;;;;;;;;;504491;28;1231;-77
2023/03/28 01:51:27;;;;;;;10.02;3.15;;;;;;;;;;505477;28;1417;-77
2023/03/28 01:52:02;;;;;;;6.20;2.70;;;;;;;;;;503841;28;1235;-77
2023/03/28 01:52:26;;;;;;;9.02;3.15;;;;;;;;;;506517;28;1500;-77
2023/03/28 01:53:07;;;;;;;7.55;2.63;;;;;;;;;;506788;28;1260;-78
2023/03/28 01:53:38;;;;;;;6.13;2.80;;;;;;;;;;510811;28;1529;-77
2023/03/28 01:53:57;;;;;;;8.45;2.78;;;;;;;;;;510254;28;1477;-78
2023/03/28 01:54:16;;;;;;;7.53;2.70;;;;;;;;;;509381;28;2001;-78
2023/03/28 01:54:35;;;;;;;7.95;2.83;;;;;;;;;;506090;28;1303;-77
2023/03/28 01:54:54;;;;;;;7.97;2.85;;;;;;;;;;504441;28;1372;-78
2023/03/28 01:55:17;;;;;;;8.48;2.90;;;;;;;;;;508339;28;1573;-77
2023/03/28 01:55:44;;;;;;;9.25;3.00;;;;;;;;;;505722;28;1205;-77
2023/03/28 01:56:03;;;;;;;10.27;3.08;;;;;;;;;;508183;28;1471;-79
2023/03/28 01:56:21;;;;;;;9.48;3.30;;;;;;;;;;507971;28;1034;-78
2023/03/28 01:57:06;;;;;;;9.45;3.30;;;;;;;;;;509261;28;1437;-78
2023/03/28 01:57:21;;;;;;;8.80;3.20;;;;;;;;;;507265;28;1501;-78
2023/03/28 01:58:00;;;;;;;9.52;3.20;;;;;;;;;;510877;28;1392;-78
2023/03/28 01:58:51;;;;;;;9.07;3.28;;;;;;;;;;507430;28;1102;-78
2023/03/28 01:59:06;;;;;;;7.43;3.40;;;;;;;;;;501466;28;1378;-78
2023/03/28 01:59:24;;;;;;;8.57;3.57;;;;;;;;;;501753;28;1266;-78
2023/03/28 01:59:48;;;;;;;9.48;3.40;;;;;;;;;;502872;28;1249;-78
2023/03/28 02:00:11;;;;;;;10.85;3.20;;;;;;;;;;505301;28;1026;-77
2023/03/28 02:00:29;;;;;;;8.88;3.20;;;;;;;;;;504156;28;1368;-78
2023/03/28 02:00:48;;;;;;;7.40;3.05;;;;;;;;;;510163;28;1193;-78
2023/03/28 02:01:06;;;;;;;7.30;3.10;;;;;;;;;;510070;28;1311;-79
2023/03/28 02:01:25;;;;;;;7.72;3.10;;;;;;;;;;514012;28;1152;-77
2023/03/28 02:01:49;;;;;;;7.72;3.05;;;;;;;;;;513355;28;1417;-78
2023/03/28 02:02:08;;;;;;;8.13;3.40;;;;;;;;;;508967;28;1275;-78
2023/03/28 02:02:23;;;;;;;9.82;3.50;;;;;;;;;;507234;28;1022;-78
2023/03/28 02:02:41;;;;;;;8.97;3.37;;;;;;;;;;507446;28;1150;-78
2023/03/28 02:03:02;;;;;;;9.02;3.10;;;;;;;;;;507138;28;1252;-78
2023/03/28 02:03:20;;;;;;;10.55;3.25;;;;;;;;;;507006;28;1461;-77
2023/03/28 02:03:36;;;;;;;9.93;3.30;;;;;;;;;;506634;28;1450;-78
2023/03/28 02:03:55;;;;;;;8.40;3.15;;;;;;;;;;505022;28;1315;-78
2023/03/28 02:04:12;;;;;;;9.23;3.08;;;;;;;;;;506210;28;975;-78
2023/03/28 02:04:28;;;;;;;8.52;2.90;;;;;;;;;;507516;28;1421;-78
2023/03/28 02:04:45;;;;;;;7.22;2.78;;;;;;;;;;507255;28;1321;-78
2023/03/28 02:05:03;;;;;;;7.63;2.95;;;;;;;;;;507484;28;1290;-78
2023/03/28 02:05:20;;;;;;;8.20;3.20;;;;;;;;;;510773;28;994;-78
2023/03/28 02:05:37;;;;;;;7.15;3.08;;;;;;;;;;508669;28;1509;-78
2023/03/28 02:06:34;;;;;;;6.45;3.10;;;;;;;;;;509741;28;1474;-78
2023/03/28 02:06:49;;;;;;;7.03;3.10;;;;;;;;;;511073;28;1175;-78
2023/03/28 02:07:07;;;;;;;5.90;3.10;;;;;;;;;;510215;28;1207;-78
2023/03/28 02:07:24;;;;;;;6.50;2.83;;;;;;;;;;507935;28;1353;-77
2023/03/28 02:07:40;;;;;;;7.60;2.92;;;;;;;;;;509610;28;1398;-78
2023/03/28 02:07:57;;;;;;;7.20;2.88;;;;;;;;;;507152;28;1602;-78
2023/03/28 02:08:13;;;;;;;7.47;2.97;;;;;;;;;;506816;28;1019;-78
2023/03/28 02:08:30;;;;;;;9.60;3.27;;;;;;;;;;505731;28;1370;-78
2023/03/28 02:08:46;;;;;;;11.20;3.33;;;;;;;;;;506184;28;1279;-78
2023/03/28 02:09:03;;;;;;;10.45;3.22;;;;;;;;;;506063;28;1333;-78
2023/03/28 02:09:20;;;;;;;6.80;2.92;;;;;;;;;;506217;28;1394;-78
2023/03/28 02:09:36;;;;;;;7.78;3.03;;;;;;;;;;509222;28;1275;-78
2023/03/28 02:09:53;;;;;;;8.25;3.15;;;;;;;;;;510548;28;1342;-77
2023/03/28 02:10:09;;;;;;;8.63;3.15;;;;;;;;;;511979;28;1277;-77
2023/03/28 02:10:25;;;;;;;8.10;2.95;;;;;;;;;;506677;28;1509;-77
2023/03/28 02:10:41;;;;;;;8.48;3.30;;;;;;;;;;503621;28;1490;-78
2023/03/28 02:10:57;;;;;;;9.77;3.45;;;;;;;;;;501461;28;1425;-78
2023/03/28 02:11:13;;;;;;;9.55;3.33;;;;;;;;;;501914;28;1467;-79
2023/03/28 02:11:30;;;;;;;9.30;3.13;;;;;;;;;;502646;28;1285;-79
2023/03/28 02:11:47;;;;;;;8.45;3.00;;;;;;;;;;508773;28;1302;-78
2023/03/28 02:12:31;;;;;;;8.60;3.08;;;;;;;;;;507490;28;1415;-78
2023/03/28 02:12:53;;;;;;;7.32;3.00;;;;;;;;;;500881;28;1213;-78
2023/03/28 02:13:10;;;;;;;8.38;2.97;;;;;;;;;;506159;28;1240;-77
2023/03/28 02:13:51;;;;;;;9.57;3.22;;;;;;;;;;507618;28;1178;-78
2023/03/28 02:14:09;;;;;;;7.18;2.90;;;;;;;;;;502846;28;1913;-78
2023/03/28 02:14:26;;;;;;;8.05;3.00;;;;;;;;;;507596;28;1092;-78
2023/03/28 02:14:43;;;;;;;9.55;3.13;;;;;;;;;;505612;28;1441;-78
2023/03/28 02:15:03;;;;;;;7.70;3.00;;;;;;;;;;507153;28;1331;-77
2023/03/28 02:15:20;;;;;;;6.13;2.78;;;;;;;;;;497319;28;1546;-78
2023/03/28 02:15:37;;;;;;;8.00;2.83;;;;;;;;;;501332;28;1179;-79
2023/03/28 02:15:55;;;;;;;6.97;2.70;;;;;;;;;;502097;28;1378;-78
2023/03/28 02:16:12;;;;;;;7.82;2.78;;;;;;;;;;502879;28;1478;-79
2023/03/28 02:16:29;;;;;;;8.73;3.00;;;;;;;;;;504707;28;957;-78
2023/03/28 02:16:48;;;;;;;7.40;2.65;;;;;;;;;;502410;28;1455;-77
2023/03/28 02:17:08;;;;;;;7.65;2.80;;;;;;;;;;507142;28;1177;-77
2023/03/28 02:17:42;;;;;;;6.90;2.85;;;;;;;;;;506195;28;1466;-78